Blue Image — 3EXO5 — position and weather

sailwx.info

Track history (hours):
 
Tides and Currents Weather Stations Pressure Air Temp Water Temp Dewpoint Dewpoint Depression Visibility Wind Speed Wind Dir Waves Ship Positions

Blue Image

Last reported at 2015-May-21 12:33 UTC. Time now 2015-May-29 14:17 UTC.
Position N 38°30' E 025°04'.
Warning: this ship's position is 8 days out of date.

Length 160 m; draft 8.6 m.

Type: Cargo ship. MMSI: 351960000.

Date/timePositionNaut miles runAvg speedWind from/ knotsBaromVisibWave heightAir tempDewpointWater temp
2015-May-21 12:33N 38°30' E 025°04'1411.3
2015-May-21 11:21N 38°18' E 024°55'1211.3
2015-May-21 10:16N 38°08' E 024°47'47410.6
2015-May-19 13:32N 36°27' E 015°04'1212.7
2015-May-19 12:33N 36°27' E 014°49'1312.9
2015-May-19 11:33N 36°28' E 014°33'1313.0
2015-May-19 10:33N 36°32' E 014°17'1312.8
2015-May-19 09:33N 36°35' E 014°02'1313.1
2015-May-19 08:33N 36°38' E 013°46'1313.2
2015-May-19 07:33N 36°42' E 013°30'1313.2
2015-May-19 06:33N 36°45' E 013°14'1313.0
2015-May-19 05:33N 36°49' E 012°59'1312.7
2015-May-19 04:33N 36°52' E 012°43'7612.7
2015-May-18 22:33N 37°20' E 011°15'1413.1
2015-May-18 21:28N 37°25' E 010°58'1313.2
2015-May-18 20:31N 37°29' E 010°43'40212.5
2015-May-17 12:26N 37°07' E 002°18'1713.4
2015-May-17 11:12N 37°04' E 001°57'1113.5
2015-May-17 10:23N 37°01' E 001°45'1113.2
2015-May-17 09:33N 36°58' E 001°31'1612.8
2015-May-17 08:20N 36°53' E 001°13'1413.0
2015-May-17 07:14N 36°49' E 000°55'912.9
2015-May-17 06:32N 36°46' E 000°45'1412.6
2015-May-17 05:26N 36°42' E 000°28'1712.4
2015-May-17 04:06N 36°37' E 000°09'1112.1
2015-May-17 03:11N 36°34' W 000°05'2411.8
2015-May-17 01:08N 36°27' W 000°34'22512.0
2015-May-16 06:23N 36°00' W 005°10'1214.4
2015-May-16 05:33N 35°58' W 005°25'4413.7
2015-May-16 02:20N 35°55' W 006°19'1013.1
2015-May-16 01:33N 35°58' W 006°31'4212.8
2015-May-15 22:17N 36°09' W 007°21'1012.9
2015-May-15 21:33N 36°11' W 007°32'1312.9
2015-May-15 20:33N 36°15' W 007°48'1313.0
2015-May-15 19:33N 36°18' W 008°03'1313.2
2015-May-15 18:33N 36°22' W 008°19'1312.7
2015-May-15 17:31N 36°25' W 008°35'1312.3
2015-May-15 16:27N 36°28' W 008°51'2611.6
2015-May-15 14:13N 36°37' W 009°21'2111.8
2015-May-15 12:26N 36°55' W 009°35'1212.3
2015-May-15 11:27N 37°07' W 009°38'1112.3
2015-May-15 10:31N 37°18' W 009°41'1312.6
2015-May-15 09:31N 37°30' W 009°45'1312.6
2015-May-15 08:31N 37°42' W 009°49'1212.1
2015-May-15 07:32N 37°54' W 009°52'1212.2
2015-May-15 06:32N 38°06' W 009°56'1212.3
2015-May-15 05:32N 38°18' W 009°60'1312.6
2015-May-15 04:30N 38°31' W 010°03'1212.6
2015-May-15 03:33N 38°42' W 010°06'1312.7
2015-May-15 02:32N 38°55' W 010°07'1312.8
2015-May-15 01:32N 39°08' W 010°07'  
2015-May-12 13:32N 50°29' W 005°52'1110.5
2015-May-12 12:32N 50°37' W 005°41'1010.0
2015-May-12 11:33N 50°44' W 005°31'10 9.8
2015-May-12 10:33N 50°52' W 005°21'8510.2
2015-May-12 02:12N 51°21' W 003°13'6 9.9
2015-May-12 01:33N 51°24' W 003°04'1111.4
2015-May-12 00:33N 51°29' W 002°48'4 3.5
2015-May-11 23:33N 51°30' W 002°43'0 0.2
2015-May-11 22:33N 51°30' W 002°42'0 0.0
2015-May-11 21:33N 51°30' W 002°42'0 0.0
2015-May-11 20:33N 51°30' W 002°42'0 0.0
2015-May-11 19:33N 51°30' W 002°42'0 0.0
2015-May-11 18:33N 51°30' W 002°42'0 0.0
2015-May-11 17:33N 51°30' W 002°42'0 0.0
2015-May-11 16:21N 51°30' W 002°42'0 0.0
2015-May-11 15:30N 51°30' W 002°42'0 0.0
2015-May-11 14:33N 51°30' W 002°42'0 0.0
2015-May-11 13:33N 51°30' W 002°42'  
Track history (hours):
 
Tides and Currents Weather Stations Pressure Air Temp Water Temp Dewpoint Dewpoint Depression Visibility Wind Speed Wind Dir Waves Ship Positions

Blue Image

Last reported at 2015-May-21 12:33 UTC. Time now 2015-May-29 14:17 UTC.
Position N 38°30' E 025°04'.
Warning: this ship's position is 8 days out of date.

Length 160 m; draft 8.6 m.

Type: Cargo ship. MMSI: 351960000.

Date/timePositionNaut miles runAvg speedWind from/ knotsBaromVisibWave heightAir tempDewpointWater temp
2015-May-21 12:33N 38°30' E 025°04'1411.3
2015-May-21 11:21N 38°18' E 024°55'1211.3
2015-May-21 10:16N 38°08' E 024°47'47410.6
2015-May-19 13:32N 36°27' E 015°04'1212.7
2015-May-19 12:33N 36°27' E 014°49'1312.9
2015-May-19 11:33N 36°28' E 014°33'1313.0
2015-May-19 10:33N 36°32' E 014°17'1312.8
2015-May-19 09:33N 36°35' E 014°02'1313.1
2015-May-19 08:33N 36°38' E 013°46'1313.2
2015-May-19 07:33N 36°42' E 013°30'1313.2
2015-May-19 06:33N 36°45' E 013°14'1313.0
2015-May-19 05:33N 36°49' E 012°59'1312.7
2015-May-19 04:33N 36°52' E 012°43'7612.7
2015-May-18 22:33N 37°20' E 011°15'1413.1
2015-May-18 21:28N 37°25' E 010°58'1313.2
2015-May-18 20:31N 37°29' E 010°43'40212.5
2015-May-17 12:26N 37°07' E 002°18'1713.4
2015-May-17 11:12N 37°04' E 001°57'1113.5
2015-May-17 10:23N 37°01' E 001°45'1113.2
2015-May-17 09:33N 36°58' E 001°31'1612.8
2015-May-17 08:20N 36°53' E 001°13'1413.0
2015-May-17 07:14N 36°49' E 000°55'912.9
2015-May-17 06:32N 36°46' E 000°45'1412.6
2015-May-17 05:26N 36°42' E 000°28'1712.4
2015-May-17 04:06N 36°37' E 000°09'1112.1
2015-May-17 03:11N 36°34' W 000°05'2411.8
2015-May-17 01:08N 36°27' W 000°34'22512.0
2015-May-16 06:23N 36°00' W 005°10'1214.4
2015-May-16 05:33N 35°58' W 005°25'4413.7
2015-May-16 02:20N 35°55' W 006°19'1013.1
2015-May-16 01:33N 35°58' W 006°31'4212.8
2015-May-15 22:17N 36°09' W 007°21'1012.9
2015-May-15 21:33N 36°11' W 007°32'1312.9
2015-May-15 20:33N 36°15' W 007°48'1313.0
2015-May-15 19:33N 36°18' W 008°03'1313.2
2015-May-15 18:33N 36°22' W 008°19'1312.7
2015-May-15 17:31N 36°25' W 008°35'1312.3
2015-May-15 16:27N 36°28' W 008°51'2611.6
2015-May-15 14:13N 36°37' W 009°21'2111.8
2015-May-15 12:26N 36°55' W 009°35'1212.3
2015-May-15 11:27N 37°07' W 009°38'1112.3
2015-May-15 10:31N 37°18' W 009°41'1312.6
2015-May-15 09:31N 37°30' W 009°45'1312.6
2015-May-15 08:31N 37°42' W 009°49'1212.1
2015-May-15 07:32N 37°54' W 009°52'1212.2
2015-May-15 06:32N 38°06' W 009°56'1212.3
2015-May-15 05:32N 38°18' W 009°60'1312.6
2015-May-15 04:30N 38°31' W 010°03'1212.6
2015-May-15 03:33N 38°42' W 010°06'1312.7
2015-May-15 02:32N 38°55' W 010°07'1312.8
2015-May-15 01:32N 39°08' W 010°07'  
2015-May-12 13:32N 50°29' W 005°52'1110.5
2015-May-12 12:32N 50°37' W 005°41'1010.0
2015-May-12 11:33N 50°44' W 005°31'10 9.8
2015-May-12 10:33N 50°52' W 005°21'8510.2
2015-May-12 02:12N 51°21' W 003°13'6 9.9
2015-May-12 01:33N 51°24' W 003°04'1111.4
2015-May-12 00:33N 51°29' W 002°48'4 3.5
2015-May-11 23:33N 51°30' W 002°43'0 0.2
2015-May-11 22:33N 51°30' W 002°42'0 0.0
2015-May-11 21:33N 51°30' W 002°42'0 0.0
2015-May-11 20:33N 51°30' W 002°42'0 0.0
2015-May-11 19:33N 51°30' W 002°42'0 0.0
2015-May-11 18:33N 51°30' W 002°42'0 0.0
2015-May-11 17:33N 51°30' W 002°42'0 0.0
2015-May-11 16:21N 51°30' W 002°42'0 0.0
2015-May-11 15:30N 51°30' W 002°42'0 0.0
2015-May-11 14:33N 51°30' W 002°42'0 0.0
2015-May-11 13:33N 51°30' W 002°42'  

Dump ship's entire track history